Time;durP1;ratioP1;P1;durP2;ratioP2;P2;SDS_P1;SDS_P2;PMS_P1;PMS_P2;Temp;Humidity;BMP_temperature;BMP_pressure;BME280_temperature;BME280_humidity;BME280_pressure;Samples;Min_cycle;Max_cycle;Signal;HPM_P1;HPM_P2
2022/12/14 00:02:36;;;;;;;24.97;15.30;;;0.00;99.90;;;;;;6201519;28;20475;-82
2022/12/14 00:05:39;;;;;;;28.10;17.13;;;-0.10;99.90;;;;;;6215389;28;20042;-82
2022/12/14 00:08:42;;;;;;;23.10;12.53;;;-0.10;99.90;;;;;;6199864;28;20042;-82
2022/12/14 00:11:44;;;;;;;21.30;12.90;;;-0.10;99.90;;;;;;6201207;28;20060;-82
2022/12/14 00:14:46;;;;;;;27.13;15.37;;;-0.10;99.90;;;;;;6204015;28;20042;-82
2022/12/14 00:17:48;;;;;;;28.10;15.87;;;-0.10;99.90;;;;;;6204169;28;20073;-81
2022/12/14 00:20:51;;;;;;;29.50;17.97;;;-0.10;99.90;;;;;;6204198;28;20042;-82
2022/12/14 00:23:53;;;;;;;25.63;17.87;;;-0.10;99.90;;;;;;6204530;28;20050;-81
2022/12/14 00:26:55;;;;;;;33.13;18.70;;;-0.10;99.90;;;;;;6203708;28;20042;-81
2022/12/14 00:29:56;;;;;;;31.53;17.07;;;-0.10;99.90;;;;;;6203831;28;20042;-82
2022/12/14 00:32:58;;;;;;;38.07;20.27;;;-0.10;99.90;;;;;;6204113;28;20050;-80
2022/12/14 00:36:02;;;;;;;29.33;18.20;;;-0.10;99.90;;;;;;6204854;28;20050;-82
2022/12/14 00:39:04;;;;;;;32.70;20.87;;;-0.10;99.90;;;;;;6205767;28;20054;-83
2022/12/14 00:42:06;;;;;;;32.87;21.47;;;-0.10;99.90;;;;;;6202595;28;20401;-82
2022/12/14 00:45:08;;;;;;;34.03;19.13;;;0.00;99.90;;;;;;6204088;28;20047;-83
2022/12/14 00:48:10;;;;;;;28.80;20.30;;;0.00;99.90;;;;;;6203795;28;20054;-82
2022/12/14 00:51:14;;;;;;;32.10;20.93;;;0.00;99.90;;;;;;6205235;28;20061;-81
2022/12/14 00:54:16;;;;;;;31.30;20.23;;;-0.10;99.90;;;;;;6204312;28;20046;-83
2022/12/14 00:57:18;;;;;;;29.87;19.10;;;-0.10;99.90;;;;;;6203105;28;20431;-85
2022/12/14 01:00:20;;;;;;;40.07;21.37;;;-0.10;99.90;;;;;;6203547;28;20042;-82
2022/12/14 01:03:21;;;;;;;35.40;19.33;;;-0.10;99.90;;;;;;6203843;28;20050;-82
2022/12/14 01:06:24;;;;;;;48.87;22.97;;;-0.10;99.90;;;;;;6203356;28;20039;-82
2022/12/14 01:09:26;;;;;;;33.37;21.13;;;-0.20;99.90;;;;;;6204046;28;20053;-81
2022/12/14 01:12:28;;;;;;;34.30;20.67;;;-0.10;99.90;;;;;;6203652;28;20050;-82
2022/12/14 01:15:30;;;;;;;34.97;23.20;;;-0.20;99.90;;;;;;6205434;28;20052;-80
2022/12/14 01:18:34;;;;;;;29.60;20.00;;;-0.20;99.90;;;;;;6213001;28;20066;-82
2022/12/14 01:21:37;;;;;;;33.90;20.80;;;-0.10;99.90;;;;;;6202832;28;20050;-82
2022/12/14 01:24:39;;;;;;;35.87;21.67;;;-0.10;99.90;;;;;;6202424;28;20180;-82
2022/12/14 01:27:40;;;;;;;34.27;21.67;;;0.00;99.90;;;;;;6202927;28;20061;-82
2022/12/14 01:30:42;;;;;;;35.13;20.70;;;0.00;99.90;;;;;;6202454;28;20054;-82
2022/12/14 01:33:44;;;;;;;42.43;23.20;;;0.00;99.90;;;;;;6202250;28;20042;-82
2022/12/14 01:36:47;;;;;;;32.93;21.10;;;0.00;99.90;;;;;;6202456;28;20046;-82
2022/12/14 01:39:49;;;;;;;33.20;21.80;;;0.00;99.90;;;;;;6201832;28;20050;-81
2022/12/14 01:42:50;;;;;;;35.13;22.17;;;0.00;99.90;;;;;;6201641;28;20058;-82
2022/12/14 01:45:55;;;;;;;31.80;19.73;;;0.10;99.90;;;;;;6202190;28;20047;-80
2022/12/14 01:49:04;;;;;;;34.97;20.67;;;0.10;99.90;;;;;;6200784;28;20051;-80
2022/12/14 01:52:12;;;;;;;37.20;21.57;;;0.00;99.90;;;;;;6198797;28;20057;-81
2022/12/14 01:55:16;;;;;;;30.48;20.90;;;0.10;99.90;;;;;;6201274;28;20054;-81
2022/12/14 01:58:21;;;;;;;35.93;21.53;;;0.10;99.90;;;;;;6200302;28;20061;-81
2022/12/14 02:01:22;;;;;;;34.13;19.70;;;0.10;99.90;;;;;;6199659;28;20058;-80
2022/12/14 02:04:24;;;;;;;35.43;20.37;;;0.10;99.90;;;;;;6201432;28;20057;-81
2022/12/14 02:07:29;;;;;;;33.07;19.73;;;0.10;99.90;;;;;;6201287;28;20054;-81
2022/12/14 02:10:32;;;;;;;39.70;21.60;;;0.10;99.90;;;;;;6201108;28;20050;-81
2022/12/14 02:13:37;;;;;;;33.60;19.57;;;0.10;99.90;;;;;;6201427;28;20049;-81
2022/12/14 02:16:40;;;;;;;35.37;21.33;;;0.10;99.90;;;;;;6205405;28;20057;-81
2022/12/14 02:19:45;;;;;;;44.90;22.00;;;0.10;99.90;;;;;;6205459;28;20419;-81
2022/12/14 02:23:19;;;;;;;31.27;21.07;;;0.10;99.90;;;;;;6205456;28;20054;-80
2022/12/14 02:26:46;;;;;;;30.40;21.00;;;0.10;99.90;;;;;;6209779;28;20041;-81
2022/12/14 02:30:09;;;;;;;33.43;20.83;;;0.10;99.90;;;;;;6181972;28;20050;-82
2022/12/14 02:33:29;;;;;;;33.13;21.67;;;0.10;99.90;;;;;;6187061;28;20049;-81
2022/12/14 02:36:41;;;;;;;34.30;21.47;;;0.10;99.90;;;;;;6205994;28;20046;-80
2022/12/14 02:39:53;;;;;;;36.77;22.23;;;0.20;99.90;;;;;;6206510;28;20065;-81
2022/12/14 02:43:02;;;;;;;34.33;21.57;;;0.10;99.90;;;;;;6206274;28;20042;-82
2022/12/14 02:46:15;;;;;;;31.33;20.07;;;0.20;99.90;;;;;;6206560;28;20050;-81
2022/12/14 02:49:33;;;;;;;35.83;21.40;;;0.20;99.90;;;;;;6205803;28;20101;-81
2022/12/14 02:52:40;;;;;;;29.97;18.87;;;0.20;99.90;;;;;;6206092;28;20050;-80
2022/12/14 02:55:45;;;;;;;30.83;19.42;;;0.20;99.90;;;;;;6206420;28;20254;-81
2022/12/14 02:58:52;;;;;;;35.57;21.03;;;0.20;99.90;;;;;;6205195;28;20054;-80
2022/12/14 03:01:56;;;;;;;31.20;20.97;;;0.20;99.90;;;;;;6219314;28;20061;-80
2022/12/14 03:04:58;;;;;;;37.57;20.43;;;0.20;99.90;;;;;;6214265;28;20042;-81
2022/12/14 03:08:02;;;;;;;37.67;21.47;;;0.30;99.90;;;;;;6218024;28;20046;-81
2022/12/14 03:11:05;;;;;;;41.83;21.80;;;0.30;99.90;;;;;;6218392;28;20072;-81
2022/12/14 03:14:13;;;;;;;35.03;22.48;;;0.30;99.90;;;;;;6218725;28;20050;-80
2022/12/14 03:17:20;;;;;;;36.67;21.85;;;0.30;99.90;;;;;;6217733;28;20051;-81
2022/12/14 03:20:24;;;;;;;34.80;20.88;;;0.30;99.90;;;;;;6218840;28;21189;-82
2022/12/14 03:23:30;;;;;;;34.67;20.23;;;0.30;99.90;;;;;;6219958;28;20065;-83
2022/12/14 03:26:36;;;;;;;38.13;22.80;;;0.30;99.90;;;;;;6218995;28;20046;-82
2022/12/14 03:29:42;;;;;;;36.17;22.10;;;0.30;99.90;;;;;;6219344;28;20065;-81
2022/12/14 03:32:49;;;;;;;35.70;20.83;;;0.20;99.90;;;;;;6219411;28;20046;-81
2022/12/14 03:35:57;;;;;;;40.20;22.07;;;0.20;99.90;;;;;;6219966;28;20450;-82
2022/12/14 03:39:01;;;;;;;35.63;20.30;;;0.20;99.90;;;;;;6219647;28;20154;-83
2022/12/14 03:42:11;;;;;;;30.93;21.03;;;0.20;99.90;;;;;;6220281;28;20056;-82
2022/12/14 03:45:18;;;;;;;33.33;19.73;;;0.20;99.90;;;;;;6220475;28;20061;-81
2022/12/14 03:48:30;;;;;;;30.57;19.07;;;0.30;99.90;;;;;;6219862;28;20064;-82
2022/12/14 03:51:38;;;;;;;40.27;21.80;;;0.30;99.90;;;;;;6220704;28;20078;-81
2022/12/14 03:54:49;;;;;;;33.03;22.03;;;0.20;99.90;;;;;;6220133;28;20050;-81
2022/12/14 03:58:11;;;;;;;30.33;20.37;;;0.20;99.90;;;;;;6220491;28;20046;-82
2022/12/14 04:01:21;;;;;;;31.27;18.67;;;0.20;99.90;;;;;;6221058;28;20065;-82
2022/12/14 04:04:30;;;;;;;34.03;21.03;;;0.10;99.90;;;;;;6221334;28;20566;-81
2022/12/14 04:07:37;;;;;;;33.73;21.77;;;0.10;99.90;;;;;;6220635;28;20060;-82
2022/12/14 04:21:07;;;;;;;34.55;22.80;;;0.20;99.90;;;;;;6193659;28;20102;-82
2022/12/14 04:27:37;;;;;;;33.03;21.48;;;0.20;99.90;;;;;;6227733;28;20431;-82
2022/12/14 04:30:39;;;;;;;36.90;23.30;;;0.20;99.90;;;;;;6241064;28;20125;-81
2022/12/14 04:33:46;;;;;;;32.30;20.67;;;0.20;99.90;;;;;;6228338;28;20057;-81
2022/12/14 04:36:55;;;;;;;39.73;20.63;;;0.20;99.90;;;;;;6215414;28;20046;-81
2022/12/14 04:40:02;;;;;;;34.63;21.03;;;0.20;99.90;;;;;;6216442;28;20050;-81
2022/12/14 04:43:07;;;;;;;38.35;22.98;;;0.20;99.90;;;;;;6213374;28;20050;-81
2022/12/14 04:46:12;;;;;;;30.17;21.27;;;0.20;99.90;;;;;;6204873;28;20046;-83
2022/12/14 04:49:19;;;;;;;34.47;21.67;;;0.10;99.90;;;;;;6207457;28;20054;-82
2022/12/14 04:52:27;;;;;;;30.97;21.53;;;0.10;99.90;;;;;;6207257;28;20050;-83
2022/12/14 04:55:30;;;;;;;;;;;0.00;99.90;;;;;;6207966;28;20424;-82
2022/12/14 04:58:34;;;;;;;38.77;21.43;;;0.10;99.90;;;;;;6203087;28;19921;-80
2022/12/14 05:01:47;;;;;;;34.67;21.20;;;0.10;99.90;;;;;;6201298;28;20047;-82
2022/12/14 05:04:56;;;;;;;36.57;23.30;;;0.10;99.90;;;;;;6201729;28;20053;-80
2022/12/14 05:08:08;;;;;;;31.87;21.40;;;0.20;99.90;;;;;;6200633;28;20471;-81
2022/12/14 05:11:20;;;;;;;39.33;23.70;;;0.10;99.90;;;;;;6201349;28;20061;-80
2022/12/14 05:14:29;;;;;;;37.20;21.93;;;0.10;99.90;;;;;;6201429;28;20057;-81
2022/12/14 05:17:34;;;;;;;31.87;20.50;;;0.10;99.90;;;;;;6199905;28;20042;-81
2022/12/14 05:20:35;;;;;;;35.23;20.80;;;0.10;99.90;;;;;;6199664;28;20508;-80
2022/12/14 05:23:38;;;;;;;34.97;22.67;;;0.10;99.90;;;;;;6201108;28;20054;-81
2022/12/14 05:26:40;;;;;;;30.00;20.57;;;0.10;99.90;;;;;;6200868;28;20061;-80
2022/12/14 05:29:42;;;;;;;39.60;22.90;;;0.00;99.90;;;;;;6200439;28;20042;-81
2022/12/14 05:32:44;;;;;;;32.17;21.23;;;0.00;99.90;;;;;;6201210;28;20050;-80
2022/12/14 05:35:46;;;;;;;42.53;23.10;;;0.00;99.90;;;;;;6200913;28;20544;-81
2022/12/14 05:38:49;;;;;;;38.27;22.83;;;0.00;99.90;;;;;;6200037;28;20042;-81
2022/12/14 05:41:52;;;;;;;31.60;20.73;;;0.00;99.90;;;;;;6200688;28;20047;-80
2022/12/14 05:44:54;;;;;;;36.87;19.73;;;-0.10;99.90;;;;;;6200833;28;20053;-81
2022/12/14 05:47:55;;;;;;;43.17;22.40;;;-0.10;99.90;;;;;;6201040;28;20046;-80
2022/12/14 05:51:04;;;;;;;34.60;22.77;;;-0.10;99.90;;;;;;6208846;28;20050;-82
2022/12/14 05:54:07;;;;;;;35.83;22.07;;;-0.10;99.90;;;;;;6208997;28;20087;-81
2022/12/14 05:57:09;;;;;;;35.67;21.80;;;-0.10;99.90;;;;;;6208322;28;20121;-80
2022/12/14 06:00:12;;;;;;;36.37;24.20;;;-0.10;99.90;;;;;;6208242;28;20054;-81
2022/12/14 06:03:13;;;;;;;42.43;23.07;;;-0.10;99.90;;;;;;6209693;28;20055;-80
2022/12/14 06:06:15;;;;;;;38.70;23.20;;;-0.10;99.90;;;;;;6208708;28;20068;-81
2022/12/14 06:09:19;;;;;;;47.60;25.93;;;-0.20;99.90;;;;;;6208359;28;20053;-81
2022/12/14 06:12:21;;;;;;;45.77;25.47;;;-0.30;99.90;;;;;;6208504;28;20049;-81
2022/12/14 06:15:22;;;;;;;41.80;22.97;;;-0.30;99.90;;;;;;6209856;28;20057;-80
2022/12/14 06:18:24;;;;;;;47.67;25.43;;;-0.30;99.90;;;;;;6207910;28;20054;-80
2022/12/14 06:21:28;;;;;;;38.13;23.97;;;-0.30;99.90;;;;;;6208446;28;20061;-81
2022/12/14 06:24:31;;;;;;;46.97;25.17;;;-0.40;99.90;;;;;;6208268;28;20046;-79
2022/12/14 06:27:33;;;;;;;44.33;24.67;;;-0.40;99.90;;;;;;6207697;28;20057;-79
2022/12/14 06:30:34;;;;;;;38.60;25.77;;;-0.40;99.90;;;;;;6207132;28;20046;-80
2022/12/14 06:33:36;;;;;;;44.17;23.30;;;-0.40;99.90;;;;;;6210457;28;20050;-82
2022/12/14 06:36:40;;;;;;;44.77;27.60;;;-0.40;99.90;;;;;;6232676;28;20509;-80
2022/12/14 06:39:43;;;;;;;47.47;27.07;;;-0.40;99.90;;;;;;6224838;28;20050;-81
2022/12/14 06:42:47;;;;;;;39.53;25.17;;;-0.30;99.90;;;;;;6209864;28;20054;-81
2022/12/14 06:45:48;;;;;;;41.77;25.73;;;-0.30;99.90;;;;;;6209638;28;20062;-81
2022/12/14 06:48:51;;;;;;;47.97;24.53;;;-0.30;99.90;;;;;;6207990;28;20516;-81
2022/12/14 06:51:53;;;;;;;49.07;27.07;;;-0.30;99.90;;;;;;6209455;28;20046;-81
2022/12/14 06:54:56;;;;;;;40.17;26.17;;;-0.30;99.90;;;;;;6209598;28;20137;-82
2022/12/14 06:57:57;;;;;;;44.40;25.17;;;-0.20;99.90;;;;;;6209897;28;20376;-82
2022/12/14 07:01:01;;;;;;;50.20;28.73;;;-0.20;99.90;;;;;;6206630;28;20061;-83
2022/12/14 07:04:04;;;;;;;43.43;26.23;;;-0.30;99.90;;;;;;6205420;28;20050;-82
2022/12/14 07:07:06;;;;;;;42.33;27.97;;;-0.20;99.90;;;;;;6206368;28;20050;-82
2022/12/14 07:10:11;;;;;;;46.13;26.93;;;-0.10;99.90;;;;;;6205120;28;20057;-82
2022/12/14 07:13:13;;;;;;;53.83;30.07;;;0.00;99.90;;;;;;6210962;28;20479;-82
2022/12/14 07:16:17;;;;;;;49.50;27.97;;;0.20;99.90;;;;;;6204028;28;20060;-82
2022/12/14 07:19:19;;;;;;;53.53;31.30;;;0.30;99.90;;;;;;6205765;28;20047;-82
2022/12/14 07:22:21;;;;;;;43.07;26.73;;;0.50;99.90;;;;;;6204193;28;20061;-82
2022/12/14 07:25:24;;;;;;;49.08;31.42;;;0.40;99.90;;;;;;6204085;28;20042;-82
2022/12/14 07:28:28;;;;;;;47.40;28.83;;;0.40;99.90;;;;;;6205323;28;20049;-82
2022/12/14 07:31:30;;;;;;;44.35;27.23;;;0.40;99.90;;;;;;6205133;28;20065;-82
2022/12/14 07:34:32;;;;;;;44.67;25.80;;;0.40;99.90;;;;;;6204982;28;20047;-83
2022/12/14 07:37:33;;;;;;;37.47;26.23;;;0.40;99.90;;;;;;6205020;28;20042;-83
2022/12/14 07:40:36;;;;;;;47.00;27.70;;;0.40;99.90;;;;;;6204124;28;20523;-83
2022/12/14 07:43:39;;;;;;;46.67;28.23;;;0.40;99.90;;;;;;6204742;28;20051;-82
2022/12/14 07:46:41;;;;;;;47.50;30.20;;;0.40;99.90;;;;;;6204155;28;20057;-82
2022/12/14 07:49:42;;;;;;;45.20;27.40;;;0.40;99.90;;;;;;6203478;28;20823;-82
2022/12/14 07:52:44;;;;;;;47.47;29.47;;;0.40;99.90;;;;;;6204037;28;20420;-82
2022/12/14 07:55:47;;;;;;;36.37;24.40;;;0.40;99.90;;;;;;6204603;28;20431;-83
2022/12/14 07:58:49;;;;;;;42.53;24.43;;;0.40;99.90;;;;;;6203069;28;20042;-82
2022/12/14 08:01:52;;;;;;;40.83;23.27;;;0.40;99.90;;;;;;6203620;28;20046;-82
2022/12/14 08:04:54;;;;;;;35.73;24.10;;;0.40;99.90;;;;;;6203483;28;20057;-83
2022/12/14 08:07:55;;;;;;;47.10;29.67;;;0.40;99.90;;;;;;6203613;28;20050;-83
2022/12/14 08:10:58;;;;;;;45.67;26.97;;;0.40;99.90;;;;;;6202058;28;20046;-82
2022/12/14 08:14:02;;;;;;;49.08;30.42;;;0.40;99.90;;;;;;6200706;28;20058;-82
2022/12/14 08:17:04;;;;;;;49.00;31.20;;;0.50;99.90;;;;;;6199335;28;20050;-83
2022/12/14 08:20:07;;;;;;;148.27;85.78;;;0.50;99.90;;;;;;6199457;28;20725;-82
2022/12/14 08:23:08;;;;;;;44.78;28.08;;;0.50;99.90;;;;;;6200469;28;20051;-81
2022/12/14 08:26:11;;;;;;;50.33;29.87;;;0.50;99.90;;;;;;6200427;28;20516;-82
2022/12/14 08:29:14;;;;;;;40.97;26.95;;;0.50;99.90;;;;;;6199895;28;20054;-81
2022/12/14 08:32:15;;;;;;;50.13;28.87;;;0.60;99.90;;;;;;6161023;28;20531;-81
2022/12/14 08:35:17;;;;;;;39.17;25.03;;;0.60;99.90;;;;;;6197678;28;20061;-82
2022/12/14 08:38:19;;;;;;;41.33;24.63;;;0.60;99.90;;;;;;6218265;28;20045;-82
2022/12/14 08:41:23;;;;;;;35.13;24.97;;;0.60;99.90;;;;;;6201176;28;20042;-83
2022/12/14 08:44:24;;;;;;;40.27;25.83;;;0.50;99.90;;;;;;6177766;28;20519;-82
2022/12/14 08:47:26;;;;;;;38.13;24.37;;;0.50;99.90;;;;;;6203949;28;20424;-82
2022/12/14 08:50:29;;;;;;;41.00;28.30;;;0.60;99.90;;;;;;6220463;28;20050;-82
2022/12/14 08:53:30;;;;;;;39.13;25.40;;;0.50;99.90;;;;;;6207641;28;20053;-81
2022/12/14 08:56:33;;;;;;;41.57;25.37;;;0.60;99.90;;;;;;6200546;28;20057;-82
2022/12/14 08:59:35;;;;;;;44.53;28.80;;;0.60;99.90;;;;;;6232141;22;20046;-83
2022/12/14 09:02:37;;;;;;;40.77;26.83;;;0.60;99.90;;;;;;6232799;28;20077;-81
2022/12/14 09:05:39;;;;;;;48.03;31.08;;;0.60;99.90;;;;;;6244962;28;20052;-81
2022/12/14 09:08:41;;;;;;;47.20;28.95;;;0.60;99.90;;;;;;6261199;28;20049;-79
2022/12/14 09:11:45;;;;;;;49.50;28.57;;;0.60;99.90;;;;;;6283476;28;20061;-81
2022/12/14 09:14:48;;;;;;;50.17;28.75;;;0.60;99.90;;;;;;6284149;28;20438;-81
2022/12/14 09:17:50;;;;;;;44.63;26.50;;;0.60;99.90;;;;;;6286105;28;20045;-79
2022/12/14 09:20:53;;;;;;;48.67;29.07;;;0.70;99.90;;;;;;6285754;28;20049;-80
2022/12/14 09:23:55;;;;;;;46.17;30.73;;;0.70;99.90;;;;;;6284985;28;20510;-81
2022/12/14 09:27:00;;;;;;;42.67;29.45;;;0.80;99.90;;;;;;6284787;28;20132;-82
2022/12/14 09:30:02;;;;;;;49.08;30.20;;;0.80;99.90;;;;;;6283615;28;20051;-81
2022/12/14 09:33:04;;;;;;;53.88;36.92;;;0.80;99.90;;;;;;6282059;28;20071;-80
2022/12/14 09:36:08;;;;;;;52.13;30.48;;;1.00;99.90;;;;;;6267673;28;20055;-82
2022/12/14 09:39:13;;;;;;;47.00;30.45;;;1.00;99.90;;;;;;6283483;28;20052;-81
2022/12/14 09:42:30;;;;;;;51.47;29.75;;;1.00;99.90;;;;;;6288052;28;20045;-83
2022/12/14 09:45:34;;;;;;;53.30;29.48;;;1.00;99.90;;;;;;6290393;28;20048;-81
2022/12/14 09:48:36;;;;;;;49.45;31.50;;;1.00;99.90;;;;;;6286298;28;20049;-81
2022/12/14 09:51:38;;;;;;;48.40;28.58;;;1.00;99.90;;;;;;6291985;28;20059;-82
2022/12/14 09:54:42;;;;;;;48.58;30.50;;;1.00;99.90;;;;;;6289880;28;20064;-84
2022/12/14 09:57:48;;;;;;;45.85;30.40;;;1.00;99.90;;;;;;6287137;28;20079;-81
2022/12/14 10:00:58;;;;;;;49.85;28.70;;;1.00;99.90;;;;;;6291549;28;20052;-83
2022/12/14 10:04:10;;;;;;;46.03;30.98;;;1.00;99.90;;;;;;6286426;28;20145;-82
2022/12/14 10:07:19;;;;;;;60.47;32.50;;;1.00;99.90;;;;;;6269338;28;20053;-82
2022/12/14 10:10:28;;;;;;;49.85;31.33;;;1.00;99.90;;;;;;6262843;28;20041;-82
2022/12/14 10:13:45;;;;;;;50.00;31.75;;;1.10;99.90;;;;;;6264056;28;20042;-82
2022/12/14 10:16:58;;;;;;;48.90;30.60;;;1.00;99.90;;;;;;6261987;28;20050;-82
2022/12/14 10:20:11;;;;;;;54.42;31.23;;;1.10;99.90;;;;;;6266159;28;20049;-83
2022/12/14 10:23:18;;;;;;;48.90;30.33;;;1.10;99.90;;;;;;6266259;28;20054;-81
2022/12/14 10:26:22;;;;;;;53.33;29.47;;;1.10;99.90;;;;;;6261872;28;20076;-85
2022/12/14 10:29:33;;;;;;;53.72;30.13;;;1.10;99.90;;;;;;6258211;28;20050;-83
2022/12/14 10:32:36;;;;;;;64.07;41.65;;;1.00;99.90;;;;;;6263217;28;20068;-82
2022/12/14 10:35:45;;;;;;;84.70;56.40;;;1.00;99.90;;;;;;6274946;28;20069;-83
2022/12/14 10:38:56;;;;;;;49.47;32.80;;;1.00;99.90;;;;;;6267645;28;20049;-83
2022/12/14 10:42:02;;;;;;;59.15;34.13;;;1.10;99.90;;;;;;6268688;28;20068;-83
2022/12/14 10:45:18;;;;;;;58.22;35.58;;;1.10;99.90;;;;;;6265136;28;20049;-82
2022/12/14 10:48:30;;;;;;;49.03;31.85;;;1.20;99.90;;;;;;6268932;28;20766;-83
2022/12/14 10:51:37;;;;;;;49.38;30.80;;;1.20;99.90;;;;;;6268004;28;20055;-82
2022/12/14 10:54:44;;;;;;;44.08;29.48;;;1.30;99.90;;;;;;6291960;28;20420;-82
2022/12/14 10:57:46;;;;;;;54.50;34.35;;;1.30;99.90;;;;;;6290481;28;20053;-80
2022/12/14 11:00:54;;;;;;;51.33;31.38;;;1.30;99.90;;;;;;6293597;28;20067;-83
2022/12/14 11:03:55;;;;;;;53.85;34.13;;;1.40;99.90;;;;;;6291214;28;20513;-83
2022/12/14 11:07:00;;;;;;;57.42;32.33;;;1.40;99.90;;;;;;6283563;28;20109;-81
2022/12/14 11:10:15;;;;;;;50.95;34.60;;;1.40;99.90;;;;;;6286788;28;20406;-81
2022/12/14 11:13:19;;;;;;;53.13;35.30;;;1.50;99.90;;;;;;6288404;28;20094;-84
2022/12/14 11:16:33;;;;;;;45.60;30.30;;;1.60;99.90;;;;;;6292873;28;20136;-83
2022/12/14 11:19:36;;;;;;;40.13;26.88;;;1.60;99.90;;;;;;6295294;28;20052;-81
2022/12/14 11:22:43;;;;;;;50.30;34.92;;;1.70;99.90;;;;;;6294093;28;20071;-82
2022/12/14 11:25:47;;;;;;;52.13;32.75;;;1.70;99.90;;;;;;6292213;28;20044;-83
2022/12/14 11:28:51;;;;;;;47.08;28.13;;;1.70;99.90;;;;;;6291073;28;20041;-83
2022/12/14 11:31:55;;;;;;;52.20;39.70;;;1.70;99.90;;;;;;6293997;28;20053;-82
2022/12/14 11:34:58;;;;;;;39.60;26.77;;;1.70;99.90;;;;;;6290955;28;20045;-81
2022/12/14 11:38:00;;;;;;;44.85;29.75;;;1.70;99.90;;;;;;6284514;28;20048;-83
2022/12/14 11:41:04;;;;;;;46.33;30.75;;;1.70;99.90;;;;;;6294338;28;20109;-82
2022/12/14 11:44:22;;;;;;;50.15;31.27;;;1.70;99.90;;;;;;6296178;28;20510;-81
2022/12/14 11:47:26;;;;;;;43.08;30.63;;;1.60;99.90;;;;;;6292346;28;20163;-82
2022/12/14 11:50:31;;;;;;;48.03;28.80;;;1.50;99.90;;;;;;6292074;28;20049;-82
2022/12/14 11:53:32;;;;;;;42.80;28.77;;;1.50;99.90;;;;;;6292589;28;20066;-82
2022/12/14 11:56:36;;;;;;;41.45;28.60;;;1.40;99.90;;;;;;6293375;28;20059;-82
2022/12/14 11:59:41;;;;;;;45.17;30.58;;;1.40;99.90;;;;;;6293073;28;20052;-81
2022/12/14 12:02:49;;;;;;;47.53;31.05;;;1.30;99.90;;;;;;6291848;28;20070;-81
2022/12/14 12:05:52;;;;;;;49.75;29.58;;;1.30;99.90;;;;;;6283257;28;20131;-82
2022/12/14 12:08:55;;;;;;;54.65;33.28;;;1.30;99.90;;;;;;6291790;28;20041;-82
2022/12/14 12:11:57;;;;;;;48.13;29.73;;;1.30;99.90;;;;;;6266265;28;20057;-83
2022/12/14 12:15:00;;;;;;;55.92;38.83;;;1.30;99.90;;;;;;6292747;28;20056;-83
2022/12/14 12:18:08;;;;;;;54.30;30.92;;;1.30;99.90;;;;;;6293059;28;20040;-83
2022/12/14 12:21:14;;;;;;;51.53;31.13;;;1.30;99.90;;;;;;6293713;28;20045;-83
2022/12/14 12:24:21;;;;;;;50.15;28.73;;;1.20;99.90;;;;;;6295277;28;20084;-83
2022/12/14 12:27:24;;;;;;;49.17;30.23;;;1.20;99.90;;;;;;6294455;28;20053;-82
2022/12/14 12:30:28;;;;;;;45.70;29.08;;;1.10;99.90;;;;;;6295468;28;20497;-82
2022/12/14 12:33:42;;;;;;;45.30;28.67;;;1.10;99.90;;;;;;6270048;28;20041;-82
2022/12/14 12:36:46;;;;;;;49.10;31.60;;;1.00;99.90;;;;;;6281068;28;20609;-83
2022/12/14 12:39:55;;;;;;;53.35;30.17;;;1.00;99.90;;;;;;6291708;28;20038;-81
2022/12/14 12:43:02;;;;;;;51.85;30.75;;;1.00;99.90;;;;;;6242506;28;20418;-82
2022/12/14 12:46:11;;;;;;;40.58;28.92;;;1.10;99.90;;;;;;6237671;28;20434;-83
2022/12/14 12:49:15;;;;;;;48.05;29.85;;;1.10;99.90;;;;;;6238061;28;20113;-82
2022/12/14 12:52:22;;;;;;;44.92;29.55;;;1.20;99.90;;;;;;6239507;28;20050;-82
2022/12/14 12:55:26;;;;;;;53.72;33.13;;;1.20;99.90;;;;;;6244920;28;20339;-82
2022/12/14 12:58:33;;;;;;;50.50;29.60;;;1.20;99.90;;;;;;6289046;28;20048;-82
2022/12/14 13:01:38;;;;;;;53.85;32.50;;;1.20;99.90;;;;;;6292133;28;20068;-81
2022/12/14 13:04:45;;;;;;;49.47;32.97;;;1.40;99.90;;;;;;6290576;28;20049;-82
2022/12/14 13:07:51;;;;;;;42.92;28.50;;;1.50;99.90;;;;;;6283907;28;20144;-82
2022/12/14 13:10:55;;;;;;;58.80;39.58;;;1.60;99.90;;;;;;6287501;28;20037;-82
2022/12/14 13:14:02;;;;;;;65.68;39.88;;;1.60;99.90;;;;;;6267991;28;20041;-82
2022/12/14 13:17:07;;;;;;;54.83;36.53;;;1.70;99.90;;;;;;6269748;28;20045;-82
2022/12/14 13:20:20;;;;;;;46.90;31.95;;;1.60;99.90;;;;;;6269157;28;20104;-81
2022/12/14 13:23:28;;;;;;;50.00;31.45;;;1.50;99.90;;;;;;6267175;28;20124;-81
2022/12/14 13:27:03;;;;;;;66.35;40.35;;;1.50;99.90;;;;;;6266222;28;20109;-81
2022/12/14 13:30:17;;;;;;;50.33;31.67;;;1.40;99.90;;;;;;6268814;28;20114;-82
2022/12/14 13:33:50;;;;;;;44.53;28.05;;;1.40;99.90;;;;;;6269063;28;20051;-81
2022/12/14 13:37:09;;;;;;;71.35;48.40;;;1.40;99.90;;;;;;6251567;28;20052;-81
2022/12/14 13:40:32;;;;;;;53.90;34.33;;;1.30;99.90;;;;;;6241625;28;20050;-81
2022/12/14 13:43:59;;;;;;;51.00;35.10;;;1.30;99.90;;;;;;6242475;28;20057;-80
2022/12/14 13:47:03;;;;;;;50.25;31.65;;;1.30;99.90;;;;;;6240747;28;20096;-82
2022/12/14 13:50:07;;;;;;;46.95;29.15;;;1.30;99.90;;;;;;6242711;28;20052;-81
2022/12/14 13:53:18;;;;;;;49.20;29.35;;;1.20;99.90;;;;;;6232606;28;20052;-79
2022/12/14 13:56:22;;;;;;;49.10;28.90;;;1.20;99.90;;;;;;6231237;28;20049;-79
2022/12/14 13:59:29;;;;;;;52.03;31.88;;;1.20;99.90;;;;;;6231060;28;20137;-81
2022/12/14 14:02:40;;;;;;;52.65;33.17;;;1.20;99.90;;;;;;6230354;28;20054;-79
2022/12/14 14:05:48;;;;;;;49.63;34.28;;;1.10;99.90;;;;;;6257814;28;20042;-81
2022/12/14 14:08:52;;;;;;;178.43;76.70;;;1.10;99.90;;;;;;6283927;28;20139;-82
2022/12/14 14:11:57;;;;;;;177.15;68.78;;;1.10;99.90;;;;;;6282492;28;20053;-79
2022/12/14 14:15:03;;;;;;;300.20;103.65;;;1.10;99.90;;;;;;6262321;28;20434;-80
2022/12/14 14:18:13;;;;;;;352.13;118.97;;;1.10;99.90;;;;;;6265296;28;20505;-81
2022/12/14 14:21:38;;;;;;;341.67;131.23;;;1.10;99.90;;;;;;6264928;28;20045;-80
2022/12/14 14:24:59;;;;;;;238.48;98.47;;;1.10;99.90;;;;;;6267846;28;20053;-81
2022/12/14 14:28:01;;;;;;;214.02;95.18;;;1.00;99.90;;;;;;6268063;28;20053;-80
2022/12/14 14:31:04;;;;;;;109.03;55.70;;;1.00;99.90;;;;;;6268228;28;20053;-80
2022/12/14 14:34:06;;;;;;;84.03;48.30;;;1.20;99.90;;;;;;6268647;28;20051;-82
2022/12/14 14:37:24;;;;;;;68.45;39.78;;;1.30;99.90;;;;;;6284455;28;20049;-79
2022/12/14 14:40:30;;;;;;;67.25;42.17;;;1.30;99.90;;;;;;6289171;28;20052;-81
2022/12/14 14:43:36;;;;;;;55.47;33.83;;;1.30;99.90;;;;;;6291247;28;20049;-82
2022/12/14 14:46:43;;;;;;;62.25;35.38;;;1.30;99.90;;;;;;6290034;28;20108;-80
2022/12/14 14:49:53;;;;;;;56.80;34.40;;;1.30;99.90;;;;;;6266954;28;20072;-80
2022/12/14 14:53:12;;;;;;;62.80;41.60;;;1.20;99.90;;;;;;6267511;28;20060;-82
2022/12/14 14:56:36;;;;;;;55.17;33.55;;;1.30;99.90;;;;;;6267983;28;20053;-80
2022/12/14 14:59:44;;;;;;;55.35;37.30;;;1.40;99.90;;;;;;6280814;22;20034;-81
2022/12/14 15:02:46;;;;;;;59.60;37.60;;;1.50;99.90;;;;;;6227446;28;20062;-80
2022/12/14 15:05:49;;;;;;;57.63;36.13;;;1.60;99.90;;;;;;6241658;28;20049;-79
2022/12/14 15:08:56;;;;;;;66.95;40.63;;;1.50;99.90;;;;;;6252022;28;20056;-80
2022/12/14 15:12:02;;;;;;;;;;;1.60;99.90;;;;;;6253924;28;20060;-80
2022/12/14 15:15:14;;;;;;;69.30;46.35;;;1.70;99.90;;;;;;6212023;28;19921;-80
2022/12/14 15:18:20;;;;;;;62.42;42.28;;;1.70;99.90;;;;;;6211132;28;20056;-80
2022/12/14 15:21:21;;;;;;;60.10;38.97;;;1.60;99.90;;;;;;6217914;28;20507;-78
2022/12/14 15:24:24;;;;;;;98.55;59.97;;;1.70;99.90;;;;;;6209698;28;20416;-80
2022/12/14 15:27:32;;;;;;;75.95;46.92;;;1.70;99.90;;;;;;6205050;28;20050;-80
2022/12/14 15:30:35;;;;;;;63.15;37.80;;;1.70;99.90;;;;;;6204343;28;20058;-80
2022/12/14 15:33:40;;;;;;;76.32;44.40;;;1.70;99.90;;;;;;6205924;28;20057;-79
2022/12/14 15:36:43;;;;;;;65.63;41.00;;;1.70;99.90;;;;;;6248962;28;20497;-79
2022/12/14 15:39:45;;;;;;;55.67;35.38;;;1.70;99.90;;;;;;6253923;28;20053;-79
2022/12/14 15:42:50;;;;;;;58.33;36.20;;;1.60;99.90;;;;;;6252767;28;20065;-80
2022/12/14 15:45:56;;;;;;;67.65;36.67;;;1.60;99.90;;;;;;6254181;28;20499;-80
2022/12/14 15:49:00;;;;;;;59.97;32.83;;;1.60;99.90;;;;;;6255224;28;20100;-80
2022/12/14 15:52:02;;;;;;;77.03;42.13;;;1.50;99.90;;;;;;6255521;28;20107;-81
2022/12/14 15:55:06;;;;;;;57.17;35.80;;;1.40;99.90;;;;;;6255251;28;20049;-80
2022/12/14 15:58:14;;;;;;;59.17;34.92;;;1.30;99.90;;;;;;6254367;28;20049;-80
2022/12/14 16:01:21;;;;;;;50.00;31.48;;;1.30;99.90;;;;;;6252737;28;20053;-80
2022/12/14 16:04:26;;;;;;;49.53;32.13;;;1.20;99.90;;;;;;6253122;28;20475;-80
2022/12/14 16:07:35;;;;;;;53.28;32.08;;;1.10;99.90;;;;;;6254070;28;20052;-80